Time;durP1;ratioP1;P1;durP2;ratioP2;P2;SDS_P1;SDS_P2;PMS_P1;PMS_P2;Temp;Humidity;BMP_temperature;BMP_pressure;BME280_temperature;BME280_humidity;BME280_pressure;Samples;Min_cycle;Max_cycle;Signal;HPM_P1;HPM_P2
2023/12/13 00:01:24;;;;;;;75.10;10.85;;;12.80;99.90;;;;;;5004755;28;20035;-50
2023/12/13 00:03:50;;;;;;;67.88;8.90;;;12.80;99.90;;;;;;5006120;28;20026;-49
2023/12/13 00:06:16;;;;;;;78.00;11.30;;;12.70;99.90;;;;;;5004715;28;20039;-50
2023/12/13 00:08:42;;;;;;;77.38;10.90;;;12.70;99.90;;;;;;5004867;28;20086;-50
2023/12/13 00:11:08;;;;;;;61.00;9.93;;;12.70;99.90;;;;;;5003907;28;20054;-50
2023/12/13 00:13:34;;;;;;;69.38;10.80;;;12.70;99.90;;;;;;5004625;28;20049;-50
2023/12/13 00:16:00;;;;;;;65.00;11.68;;;12.70;99.90;;;;;;4988256;28;20058;-50
2023/12/13 00:18:26;;;;;;;69.22;11.18;;;12.70;99.90;;;;;;5004716;28;20058;-49
2023/12/13 00:20:52;;;;;;;70.70;10.50;;;12.70;99.90;;;;;;5004437;28;20080;-50
2023/12/13 00:23:18;;;;;;;58.38;9.73;;;12.70;99.90;;;;;;5004557;28;20034;-50
2023/12/13 00:25:43;;;;;;;90.00;10.45;;;12.60;99.90;;;;;;5004142;28;20061;-50
2023/12/13 00:28:09;;;;;;;61.20;10.07;;;12.60;99.90;;;;;;5005025;28;20042;-49
2023/12/13 00:30:34;;;;;;;57.90;9.95;;;12.60;99.90;;;;;;5005240;28;20030;-50
2023/12/13 00:33:00;;;;;;;64.97;9.35;;;12.60;99.90;;;;;;5004499;28;20433;-49
2023/12/13 00:35:25;;;;;;;67.25;10.30;;;12.60;99.90;;;;;;5005571;28;20042;-50
2023/12/13 00:37:51;;;;;;;78.90;11.27;;;12.60;99.90;;;;;;5005449;28;20026;-50
2023/12/13 00:40:18;;;;;;;58.03;8.68;;;12.60;99.90;;;;;;5005852;28;20026;-50
2023/12/13 00:42:44;;;;;;;50.35;8.95;;;12.60;99.90;;;;;;5004381;28;20030;-50
2023/12/13 00:45:10;;;;;;;62.53;9.15;;;12.60;99.90;;;;;;5004006;28;20057;-49
2023/12/13 00:47:35;;;;;;;51.65;9.43;;;12.60;99.90;;;;;;5004205;28;20133;-50
2023/12/13 00:50:01;;;;;;;60.38;10.05;;;12.50;99.90;;;;;;5004101;28;20038;-50
2023/12/13 00:52:26;;;;;;;51.95;9.32;;;12.50;99.90;;;;;;5005445;28;20086;-49
2023/12/13 00:54:52;;;;;;;53.08;9.00;;;12.50;99.90;;;;;;5005151;28;20030;-50
2023/12/13 00:57:18;;;;;;;64.90;9.38;;;12.50;99.90;;;;;;5004083;28;20035;-50
2023/12/13 00:59:43;;;;;;;62.50;8.40;;;12.50;99.90;;;;;;5005631;28;20034;-50
2023/12/13 01:02:09;;;;;;;43.58;8.05;;;12.50;99.90;;;;;;5004130;28;20081;-50
2023/12/13 01:04:36;;;;;;;56.92;10.13;;;12.50;99.90;;;;;;5004111;28;20031;-50
2023/12/13 01:07:02;;;;;;;53.20;9.45;;;12.50;99.90;;;;;;5003905;28;20026;-49
2023/12/13 01:09:28;;;;;;;56.63;8.57;;;12.50;99.90;;;;;;5005017;28;20674;-50
2023/12/13 01:11:53;;;;;;;55.47;9.90;;;12.50;99.90;;;;;;5005068;28;20030;-49
2023/12/13 01:14:19;;;;;;;60.60;8.90;;;12.40;99.90;;;;;;5003794;28;20030;-50
2023/12/13 01:16:44;;;;;;;47.45;7.82;;;12.40;99.90;;;;;;5003814;28;20050;-50
2023/12/13 01:19:10;;;;;;;40.08;7.38;;;12.40;99.90;;;;;;5003941;28;20050;-49
2023/12/13 01:21:36;;;;;;;45.72;8.02;;;12.40;99.90;;;;;;5004684;28;20045;-49
2023/12/13 01:24:02;;;;;;;47.55;8.50;;;12.40;99.90;;;;;;4986767;28;20067;-49
2023/12/13 01:26:28;;;;;;;57.58;7.82;;;12.40;99.90;;;;;;5003371;28;20038;-49
2023/12/13 01:28:54;;;;;;;41.67;6.75;;;12.30;99.90;;;;;;5004678;28;20038;-50
2023/12/13 01:31:19;;;;;;;37.70;6.75;;;12.30;99.90;;;;;;5004772;28;20043;-49
2023/12/13 01:33:45;;;;;;;35.30;6.53;;;12.30;99.90;;;;;;5003377;28;20082;-50
2023/12/13 01:36:10;;;;;;;35.78;6.72;;;12.30;99.90;;;;;;5004782;28;20023;-50
2023/12/13 01:38:36;;;;;;;31.00;5.78;;;12.30;99.90;;;;;;5003467;28;20023;-50
2023/12/13 01:41:02;;;;;;;40.05;7.30;;;12.30;99.90;;;;;;5003424;28;20026;-50
2023/12/13 01:43:28;;;;;;;29.42;5.82;;;12.30;99.90;;;;;;5003410;28;20060;-50
2023/12/13 01:45:56;;;;;;;42.90;6.38;;;12.30;99.90;;;;;;5003239;28;20034;-49
2023/12/13 01:48:23;;;;;;;44.53;6.20;;;12.30;99.90;;;;;;4987013;28;20447;-50
2023/12/13 01:50:49;;;;;;;32.50;5.68;;;12.30;99.90;;;;;;5003154;28;20038;-50
2023/12/13 01:53:15;;;;;;;38.60;5.35;;;12.20;99.90;;;;;;5003202;28;20037;-50
2023/12/13 01:55:40;;;;;;;36.10;6.13;;;12.30;99.90;;;;;;4986785;28;20022;-49
2023/12/13 01:58:06;;;;;;;26.30;4.90;;;12.30;99.90;;;;;;5002989;28;20026;-50
2023/12/13 02:00:32;;;;;;;25.85;5.43;;;12.20;99.90;;;;;;5004275;28;20416;-50
2023/12/13 02:02:57;;;;;;;29.77;5.40;;;12.20;99.90;;;;;;5003080;28;20086;-49
2023/12/13 02:05:25;;;;;;;37.45;5.80;;;12.20;99.90;;;;;;5002894;28;20445;-50
2023/12/13 02:07:51;;;;;;;35.53;5.50;;;12.20;99.90;;;;;;5003176;28;20026;-50
2023/12/13 02:10:17;;;;;;;33.33;5.88;;;12.20;99.90;;;;;;5002917;28;20027;-49
2023/12/13 02:12:42;;;;;;;31.08;5.70;;;12.20;99.90;;;;;;5004045;28;20038;-50
2023/12/13 02:15:08;;;;;;;27.40;5.00;;;12.20;99.90;;;;;;5004010;28;20385;-50
2023/12/13 02:17:34;;;;;;;26.77;5.40;;;12.10;99.90;;;;;;5002861;28;20497;-50
2023/12/13 02:19:59;;;;;;;21.55;4.32;;;12.20;99.90;;;;;;5004032;28;20027;-50
2023/12/13 02:22:25;;;;;;;27.23;5.28;;;12.10;99.90;;;;;;5002957;28;20106;-50
2023/12/13 02:24:51;;;;;;;22.65;5.05;;;12.10;99.90;;;;;;5002715;28;20031;-50
2023/12/13 02:27:16;;;;;;;28.58;5.18;;;12.10;99.90;;;;;;5002632;28;20041;-50
2023/12/13 02:29:42;;;;;;;23.38;5.50;;;12.10;99.90;;;;;;5002673;28;20053;-50
2023/12/13 02:32:07;;;;;;;24.73;4.90;;;12.10;99.90;;;;;;5002684;28;20061;-49
2023/12/13 02:34:33;;;;;;;27.70;4.80;;;12.10;99.90;;;;;;4989905;28;20038;-50
2023/12/13 02:36:59;;;;;;;24.88;4.82;;;12.10;99.90;;;;;;5010450;28;20477;-50
2023/12/13 02:39:26;;;;;;;22.35;4.97;;;12.10;99.90;;;;;;5009034;28;20064;-50
2023/12/13 02:41:51;;;;;;;21.60;4.40;;;12.10;99.90;;;;;;5009112;28;20037;-50
2023/12/13 02:44:17;;;;;;;27.58;6.22;;;12.10;99.90;;;;;;5008965;28;20397;-50
2023/12/13 02:46:42;;;;;;;28.02;5.43;;;12.00;99.90;;;;;;5010283;28;20030;-50
2023/12/13 02:49:08;;;;;;;24.52;5.38;;;12.00;99.90;;;;;;5010007;28;20054;-50
2023/12/13 02:51:33;;;;;;;22.85;4.72;;;12.00;99.90;;;;;;5009105;28;20039;-49
2023/12/13 02:53:59;;;;;;;23.00;5.95;;;12.10;99.90;;;;;;5010384;28;20042;-50
2023/12/13 02:56:25;;;;;;;19.88;5.55;;;12.10;99.90;;;;;;5010377;28;20455;-50
2023/12/13 02:58:51;;;;;;;24.65;5.40;;;12.00;99.90;;;;;;5010024;28;20033;-50
2023/12/13 03:01:16;;;;;;;22.58;5.50;;;12.00;99.90;;;;;;5010170;28;20058;-50
2023/12/13 03:03:42;;;;;;;21.02;5.25;;;12.00;99.90;;;;;;5008813;28;20027;-50
2023/12/13 03:06:08;;;;;;;20.73;4.95;;;12.00;99.90;;;;;;5008627;28;20033;-50
2023/12/13 03:08:33;;;;;;;16.77;5.22;;;12.00;99.90;;;;;;5008850;28;20032;-50
2023/12/13 03:10:59;;;;;;;17.85;4.40;;;12.00;99.90;;;;;;5008549;28;20038;-50
2023/12/13 03:13:25;;;;;;;17.33;4.90;;;12.00;99.90;;;;;;5008562;28;20027;-50
2023/12/13 03:15:51;;;;;;;17.98;5.25;;;12.00;99.90;;;;;;5009763;28;20035;-50
2023/12/13 03:18:16;;;;;;;14.55;5.53;;;12.00;99.90;;;;;;5009921;28;20386;-50
2023/12/13 03:20:42;;;;;;;13.40;5.55;;;12.00;99.90;;;;;;5008697;28;20048;-50
2023/12/13 03:23:09;;;;;;;12.60;5.05;;;11.90;99.90;;;;;;5008625;28;20035;-50
2023/12/13 03:25:34;;;;;;;16.88;5.38;;;11.90;99.90;;;;;;5008331;28;20030;-50
2023/12/13 03:28:00;;;;;;;16.90;5.47;;;11.90;99.90;;;;;;5008539;28;20112;-50
2023/12/13 03:30:26;;;;;;;13.90;5.13;;;11.90;99.90;;;;;;5008891;28;20026;-50
2023/12/13 03:32:51;;;;;;;16.55;5.43;;;11.90;99.90;;;;;;5009144;28;20042;-49
2023/12/13 03:35:17;;;;;;;19.00;5.43;;;11.90;99.90;;;;;;5008311;28;20062;-50
2023/12/13 03:37:42;;;;;;;17.85;5.55;;;11.90;99.90;;;;;;5008484;28;20038;-50
2023/12/13 03:40:08;;;;;;;17.55;5.72;;;11.90;99.90;;;;;;5008343;28;20037;-49
2023/12/13 03:42:34;;;;;;;19.05;6.10;;;11.90;99.90;;;;;;5009620;28;20033;-50
2023/12/13 03:45:00;;;;;;;17.65;5.47;;;11.90;99.90;;;;;;5007545;28;20030;-50
2023/12/13 03:47:25;;;;;;;20.50;5.43;;;11.90;99.90;;;;;;5005982;28;20023;-50
2023/12/13 03:49:51;;;;;;;19.17;4.20;;;11.90;99.90;;;;;;5005200;28;20494;-50
2023/12/13 03:52:16;;;;;;;13.77;5.07;;;11.90;99.90;;;;;;5006222;28;20094;-50
2023/12/13 03:54:42;;;;;;;12.52;4.63;;;11.90;99.90;;;;;;5005026;28;20034;-50
2023/12/13 03:57:07;;;;;;;16.05;5.63;;;11.90;99.90;;;;;;5004854;28;20034;-50
2023/12/13 03:59:33;;;;;;;15.75;5.18;;;11.90;99.90;;;;;;5004977;28;20062;-50
2023/12/13 04:01:58;;;;;;;11.27;5.10;;;11.90;99.90;;;;;;5004936;28;20416;-50
2023/12/13 04:04:24;;;;;;;17.77;6.25;;;11.80;99.90;;;;;;5004665;28;20038;-50
2023/12/13 04:06:50;;;;;;;15.85;5.40;;;11.90;99.90;;;;;;5004787;28;20539;-50
2023/12/13 04:09:15;;;;;;;17.90;5.97;;;11.80;99.90;;;;;;5004639;28;20038;-49
2023/12/13 04:11:41;;;;;;;19.42;6.30;;;11.80;99.90;;;;;;5004698;28;20039;-50
2023/12/13 04:14:06;;;;;;;16.02;6.57;;;11.80;99.90;;;;;;4988376;28;20039;-50
2023/12/13 04:16:32;;;;;;;14.48;5.68;;;11.80;99.90;;;;;;5005936;28;20056;-49
2023/12/13 04:18:58;;;;;;;15.82;6.43;;;11.80;99.90;;;;;;5005844;28;20038;-50
2023/12/13 04:21:23;;;;;;;19.05;7.03;;;11.80;99.90;;;;;;5004531;28;20360;-50
2023/12/13 04:23:49;;;;;;;13.38;6.38;;;11.80;99.90;;;;;;5005668;28;20042;-50
2023/12/13 04:26:15;;;;;;;16.38;6.57;;;11.80;99.90;;;;;;5004217;28;20034;-50
2023/12/13 04:28:40;;;;;;;14.10;6.05;;;11.80;99.90;;;;;;4988158;28;20068;-50
2023/12/13 04:31:06;;;;;;;13.30;5.20;;;11.80;99.90;;;;;;5005542;28;20492;-50
2023/12/13 04:33:33;;;;;;;13.70;5.68;;;11.80;99.90;;;;;;4988272;28;20019;-50
2023/12/13 04:35:59;;;;;;;12.85;5.65;;;11.70;99.90;;;;;;5005519;28;20034;-50
2023/12/13 04:38:25;;;;;;;18.10;6.18;;;11.70;99.90;;;;;;5004489;28;20057;-50
2023/12/13 04:40:50;;;;;;;13.77;5.22;;;11.70;99.90;;;;;;5005466;28;20030;-50
2023/12/13 04:43:16;;;;;;;16.80;5.85;;;11.70;99.90;;;;;;5004278;28;20030;-50
2023/12/13 04:45:41;;;;;;;14.40;6.15;;;11.70;99.90;;;;;;5005781;28;20480;-50
2023/12/13 04:48:07;;;;;;;16.48;5.50;;;11.70;99.90;;;;;;5005580;28;20034;-50
2023/12/13 04:50:32;;;;;;;14.55;6.88;;;11.70;99.90;;;;;;5004265;28;20031;-49
2023/12/13 04:52:58;;;;;;;17.20;6.47;;;11.70;99.90;;;;;;5003985;28;20045;-50
2023/12/13 04:55:24;;;;;;;14.15;6.10;;;11.70;99.90;;;;;;5005271;28;20025;-49
2023/12/13 04:57:49;;;;;;;16.17;6.63;;;11.70;99.90;;;;;;5004005;28;20040;-50
2023/12/13 05:00:15;;;;;;;16.80;7.18;;;11.70;99.90;;;;;;5004071;28;20037;-50
2023/12/13 05:02:41;;;;;;;13.60;6.30;;;11.70;99.90;;;;;;5005648;28;20030;-50
2023/12/13 05:05:06;;;;;;;12.15;6.50;;;11.70;99.90;;;;;;5003916;28;20106;-49
2023/12/13 05:07:33;;;;;;;13.90;6.45;;;11.70;99.90;;;;;;5004143;28;20022;-50
2023/12/13 05:09:59;;;;;;;20.70;5.93;;;11.60;99.90;;;;;;5004076;28;20046;-49
2023/12/13 05:12:24;;;;;;;12.07;6.40;;;11.60;99.90;;;;;;5004373;28;20081;-49
2023/12/13 05:14:50;;;;;;;10.63;5.70;;;11.60;99.90;;;;;;5005082;28;20033;-50
2023/12/13 05:17:15;;;;;;;10.93;5.32;;;11.60;99.90;;;;;;5003731;28;20105;-50
2023/12/13 05:19:41;;;;;;;12.57;5.60;;;11.60;99.90;;;;;;5003655;28;20097;-49
2023/12/13 05:22:07;;;;;;;11.15;4.88;;;11.60;99.90;;;;;;5003837;28;20133;-49
2023/12/13 05:24:32;;;;;;;11.90;5.32;;;11.60;99.90;;;;;;5003976;28;20060;-50
2023/12/13 05:26:58;;;;;;;8.55;4.55;;;11.60;99.90;;;;;;5003319;28;20069;-50
2023/12/13 05:29:24;;;;;;;10.00;5.35;;;11.60;99.90;;;;;;5003694;28;20030;-49
2023/12/13 05:31:49;;;;;;;10.50;4.18;;;11.60;99.90;;;;;;5004754;28;20034;-50
2023/12/13 05:34:15;;;;;;;11.13;4.32;;;11.60;99.90;;;;;;5003568;28;20019;-50
2023/12/13 05:36:40;;;;;;;9.43;4.85;;;11.60;99.90;;;;;;4987324;28;20048;-50
2023/12/13 05:39:07;;;;;;;12.60;4.50;;;11.50;99.90;;;;;;5003408;28;20482;-49
2023/12/13 05:41:33;;;;;;;9.10;4.03;;;11.50;99.90;;;;;;5003347;28;20082;-50
2023/12/13 05:43:58;;;;;;;12.13;4.00;;;11.50;99.90;;;;;;5004617;28;20041;-50
2023/12/13 05:46:24;;;;;;;9.40;3.80;;;11.50;99.90;;;;;;5003194;28;20037;-50
2023/12/13 05:48:49;;;;;;;11.63;3.92;;;11.50;99.90;;;;;;5003371;28;20058;-50
2023/12/13 05:51:15;;;;;;;7.63;3.65;;;11.50;99.90;;;;;;5004436;28;20489;-50
2023/12/13 05:53:40;;;;;;;8.48;3.40;;;11.50;99.90;;;;;;5003069;28;20030;-50
2023/12/13 05:56:07;;;;;;;6.80;3.03;;;11.50;99.90;;;;;;5002838;28;20037;-50
2023/12/13 05:58:32;;;;;;;8.45;3.15;;;11.50;99.90;;;;;;5003103;28;20030;-49
2023/12/13 06:00:58;;;;;;;6.47;3.05;;;11.50;99.90;;;;;;5003116;28;20076;-50
2023/12/13 06:03:24;;;;;;;4.43;3.17;;;11.50;99.90;;;;;;5004273;28;20481;-50
2023/12/13 06:05:49;;;;;;;4.88;3.15;;;11.50;99.90;;;;;;5004299;28;20034;-50
2023/12/13 06:08:15;;;;;;;4.65;2.75;;;11.40;99.90;;;;;;5003754;28;20077;-50
2023/12/13 06:10:40;;;;;;;8.52;3.10;;;11.40;99.90;;;;;;5004017;28;20050;-50
2023/12/13 06:13:06;;;;;;;8.75;3.40;;;11.40;99.90;;;;;;5004121;28;20099;-50
2023/12/13 06:15:32;;;;;;;4.65;3.03;;;11.40;99.90;;;;;;5003926;28;20091;-49
2023/12/13 06:17:58;;;;;;;5.22;2.90;;;11.40;99.90;;;;;;4986513;28;20029;-50
2023/12/13 06:20:23;;;;;;;7.85;2.70;;;11.40;99.90;;;;;;5003929;28;20027;-50
2023/12/13 06:22:49;;;;;;;8.95;2.85;;;11.40;99.90;;;;;;5002616;28;20094;-50
2023/12/13 06:25:14;;;;;;;7.45;2.92;;;11.40;99.90;;;;;;5002853;28;20034;-49
2023/12/13 06:27:40;;;;;;;5.35;2.70;;;11.40;99.90;;;;;;5002554;28;20031;-50
2023/12/13 06:30:06;;;;;;;5.32;2.70;;;11.40;99.90;;;;;;5002542;28;20035;-50
2023/12/13 06:32:32;;;;;;;3.95;2.45;;;11.40;99.90;;;;;;5003929;28;20046;-50
2023/12/13 06:34:57;;;;;;;4.90;2.63;;;11.40;99.90;;;;;;5002571;28;20031;-50
2023/12/13 06:37:23;;;;;;;5.80;2.63;;;11.40;99.90;;;;;;5003851;28;20470;-50
2023/12/13 06:39:49;;;;;;;5.07;2.80;;;11.40;99.90;;;;;;5003815;28;20046;-50
2023/12/13 06:42:15;;;;;;;5.53;2.33;;;11.40;99.90;;;;;;5003885;28;20039;-50
2023/12/13 06:44:40;;;;;;;7.68;3.03;;;11.40;99.90;;;;;;5003763;28;20113;-50
2023/12/13 06:47:06;;;;;;;5.43;2.40;;;11.40;99.90;;;;;;5002444;28;20539;-50
2023/12/13 06:49:32;;;;;;;5.30;2.63;;;11.40;99.90;;;;;;4986241;28;20037;-49
2023/12/13 06:51:58;;;;;;;4.90;2.60;;;11.40;99.90;;;;;;5002444;28;20118;-49
2023/12/13 06:54:24;;;;;;;4.50;2.30;;;11.40;99.90;;;;;;5002156;28;20167;-50
2023/12/13 06:56:49;;;;;;;4.40;2.40;;;11.40;99.90;;;;;;5002109;28;20336;-50
2023/12/13 06:59:15;;;;;;;5.82;2.67;;;11.30;99.90;;;;;;5001861;28;20497;-50
2023/12/13 07:01:41;;;;;;;7.05;2.50;;;11.30;99.90;;;;;;5002579;28;20038;-49
2023/12/13 07:04:07;;;;;;;5.10;2.30;;;11.30;99.90;;;;;;5000725;28;20031;-50
2023/12/13 07:06:32;;;;;;;5.60;2.78;;;11.30;99.90;;;;;;5001663;28;20110;-50
2023/12/13 07:08:59;;;;;;;4.90;2.13;;;11.30;99.90;;;;;;5000619;28;20038;-49
2023/12/13 07:11:25;;;;;;;7.53;2.25;;;11.30;99.90;;;;;;5002596;28;20479;-50
2023/12/13 07:13:50;;;;;;;8.85;2.50;;;11.30;99.90;;;;;;4999268;28;20037;-50
2023/12/13 07:16:16;;;;;;;5.85;2.38;;;11.30;99.90;;;;;;5001270;28;20030;-50
2023/12/13 07:18:41;;;;;;;10.13;2.38;;;11.30;99.90;;;;;;5008845;28;20112;-50
2023/12/13 07:21:07;;;;;;;6.93;2.47;;;11.30;99.90;;;;;;4993948;28;20027;-50
2023/12/13 07:23:35;;;;;;;6.53;2.50;;;11.30;99.90;;;;;;5004645;28;20500;-50
2023/12/13 07:26:03;;;;;;;9.13;2.97;;;11.30;99.90;;;;;;5004548;28;20031;-50
2023/12/13 07:28:30;;;;;;;15.45;2.75;;;11.30;99.90;;;;;;5003372;28;20131;-50
2023/12/13 07:30:55;;;;;;;9.60;2.63;;;11.30;99.90;;;;;;5005202;28;20094;-50
2023/12/13 07:33:21;;;;;;;17.02;2.75;;;11.30;99.90;;;;;;5004416;28;20084;-50
2023/12/13 07:35:47;;;;;;;13.13;2.95;;;11.30;99.90;;;;;;5005773;28;20026;-49
2023/12/13 07:38:14;;;;;;;12.20;2.58;;;11.30;99.90;;;;;;5005941;28;20106;-49
2023/12/13 07:40:40;;;;;;;20.95;2.75;;;11.30;99.90;;;;;;5005722;28;20034;-49
2023/12/13 07:43:06;;;;;;;22.55;3.00;;;11.30;99.90;;;;;;5005561;28;20054;-50
2023/12/13 07:45:32;;;;;;;23.02;3.38;;;11.30;99.90;;;;;;5006471;28;20466;-49
2023/12/13 07:47:57;;;;;;;13.80;2.50;;;11.30;99.90;;;;;;5016804;28;20027;-49
2023/12/13 07:50:23;;;;;;;7.13;2.33;;;11.30;99.90;;;;;;4998517;28;20026;-50
2023/12/13 07:52:48;;;;;;;77.88;8.18;;;11.30;99.90;;;;;;4999774;28;20038;-50
2023/12/13 07:55:18;;;;;;;76.30;8.20;;;11.30;99.90;;;;;;5004198;28;20029;-50
2023/12/13 07:57:46;;;;;;;42.38;6.22;;;11.30;99.90;;;;;;4988509;28;20375;-50
2023/12/13 08:00:12;;;;;;;40.70;5.97;;;11.30;99.90;;;;;;4987257;28;20030;-50
2023/12/13 08:02:38;;;;;;;67.80;8.30;;;11.30;99.90;;;;;;5005793;28;20027;-50
2023/12/13 08:05:04;;;;;;;51.28;5.88;;;11.30;99.90;;;;;;5003931;28;20038;-49
2023/12/13 08:07:30;;;;;;;36.17;4.55;;;11.30;99.90;;;;;;4993202;28;20110;-50
2023/12/13 08:09:59;;;;;;;85.90;8.15;;;11.30;99.90;;;;;;5007860;28;20034;-50
2023/12/13 08:12:25;;;;;;;45.58;6.25;;;11.30;99.90;;;;;;5000051;28;20098;-50
2023/12/13 08:14:50;;;;;;;56.22;7.35;;;11.20;99.90;;;;;;5005300;28;20087;-50
2023/12/13 08:17:17;;;;;;;68.57;7.55;;;11.30;99.90;;;;;;5004459;28;20031;-50
2023/12/13 08:19:43;;;;;;;142.60;12.88;;;11.20;99.90;;;;;;5003236;28;20084;-50
2023/12/13 08:22:09;;;;;;;73.28;8.20;;;11.30;99.90;;;;;;5003070;28;20034;-50
2023/12/13 08:24:34;;;;;;;59.88;7.05;;;11.30;99.90;;;;;;5003693;28;20088;-50
2023/12/13 08:27:00;;;;;;;72.13;7.95;;;11.30;99.90;;;;;;5004730;28;20031;-50
2023/12/13 08:29:25;;;;;;;41.20;5.82;;;11.20;99.90;;;;;;5004644;28;20065;-50
2023/12/13 08:31:51;;;;;;;38.95;5.25;;;11.30;99.90;;;;;;4995548;28;20049;-50
2023/12/13 08:34:16;;;;;;;31.85;4.55;;;11.30;99.90;;;;;;5020611;28;20033;-50
2023/12/13 08:36:42;;;;;;;43.15;5.85;;;11.30;99.90;;;;;;5015148;28;20035;-50
2023/12/13 08:39:09;;;;;;;36.03;5.13;;;11.30;99.90;;;;;;5007727;28;20026;-50
2023/12/13 08:41:35;;;;;;;46.50;4.65;;;11.30;99.90;;;;;;5007349;28;20027;-49
2023/12/13 08:44:00;;;;;;;31.90;3.75;;;11.20;99.90;;;;;;5003959;28;20033;-50
2023/12/13 08:46:26;;;;;;;25.10;3.97;;;11.20;99.90;;;;;;5004148;28;20041;-50
2023/12/13 08:48:52;;;;;;;39.58;4.25;;;11.30;99.90;;;;;;5004195;28;20023;-50
2023/12/13 08:51:17;;;;;;;33.13;5.28;;;11.30;99.90;;;;;;4987555;28;20106;-50
2023/12/13 08:53:43;;;;;;;34.90;3.80;;;11.30;99.90;;;;;;5003930;28;20042;-50
2023/12/13 08:56:09;;;;;;;22.35;3.97;;;11.30;99.90;;;;;;5009709;28;20108;-50
2023/12/13 08:58:35;;;;;;;30.33;4.10;;;11.30;99.90;;;;;;5014511;28;20046;-50
2023/12/13 09:01:01;;;;;;;36.75;4.25;;;11.30;99.90;;;;;;5002856;28;20085;-50
2023/12/13 09:03:27;;;;;;;31.95;3.80;;;11.30;99.90;;;;;;5035624;28;20058;-50
2023/12/13 09:05:53;;;;;;;35.38;4.28;;;11.30;99.90;;;;;;5013037;28;20505;-50
2023/12/13 09:08:19;;;;;;;25.20;3.42;;;11.30;99.90;;;;;;5085990;28;20034;-49
2023/12/13 09:10:44;;;;;;;21.00;2.88;;;11.30;99.90;;;;;;5011270;28;20037;-50
2023/12/13 09:13:10;;;;;;;49.42;5.15;;;11.30;99.90;;;;;;5004771;28;20039;-50
2023/12/13 09:15:36;;;;;;;22.80;3.58;;;11.30;99.90;;;;;;5029740;28;20056;-50
2023/12/13 09:18:01;;;;;;;17.48;3.15;;;11.30;99.90;;;;;;5051403;28;20034;-50
2023/12/13 09:20:27;;;;;;;30.67;3.90;;;11.30;99.90;;;;;;5018388;28;20454;-50
2023/12/13 09:22:52;;;;;;;33.45;3.88;;;11.30;99.90;;;;;;5021901;28;20092;-49
2023/12/13 09:25:18;;;;;;;22.65;3.60;;;11.30;99.90;;;;;;5021595;28;20090;-49
2023/12/13 09:27:44;;;;;;;25.10;3.40;;;11.30;99.90;;;;;;5002796;28;20034;-50
2023/12/13 09:30:11;;;;;;;24.02;3.60;;;11.30;99.90;;;;;;5031020;28;20535;-50
2023/12/13 09:32:37;;;;;;;13.10;3.03;;;11.30;99.90;;;;;;5009391;28;20081;-50
2023/12/13 09:35:04;;;;;;;31.25;3.00;;;11.30;99.90;;;;;;4981672;28;20035;-50
2023/12/13 09:37:33;;;;;;;23.00;3.28;;;11.30;99.90;;;;;;5029551;28;20557;-50
2023/12/13 09:39:59;;;;;;;18.30;2.80;;;11.30;99.90;;;;;;5012323;28;20030;-50
2023/12/13 09:42:25;;;;;;;15.88;2.65;;;11.30;99.90;;;;;;4984741;28;20117;-50
2023/12/13 09:44:52;;;;;;;20.83;3.00;;;11.30;99.90;;;;;;5002950;28;20044;-50
2023/12/13 09:47:18;;;;;;;16.35;2.40;;;11.40;99.90;;;;;;5003173;28;20037;-50
2023/12/13 09:49:43;;;;;;;13.15;2.92;;;11.40;99.90;;;;;;5002133;28;20042;-50
2023/12/13 09:52:28;;;;;;;;;;;;;;;;;;;;;
2023/12/13 09:54:54;;;;;;;23.67;2.70;;;11.40;99.90;;;;;;4998234;28;20118;-50
2023/12/13 09:57:19;;;;;;;25.95;2.75;;;11.40;99.90;;;;;;5000738;28;20471;-50
2023/12/13 09:59:46;;;;;;;15.45;3.05;;;11.40;99.90;;;;;;5000672;28;20379;-50
2023/12/13 10:02:16;;;;;;;24.88;2.65;;;11.40;99.90;;;;;;5000427;28;20127;-50
2023/12/13 10:04:43;;;;;;;18.85;2.65;;;11.40;99.90;;;;;;4983189;28;20034;-50
2023/12/13 10:07:09;;;;;;;20.58;2.83;;;11.40;99.90;;;;;;5069019;28;20046;-50
2023/12/13 10:09:35;;;;;;;21.98;2.50;;;11.40;99.90;;;;;;4982329;28;20027;-50
2023/12/13 10:12:00;;;;;;;18.55;2.33;;;11.40;99.90;;;;;;5000921;28;20037;-50
2023/12/13 10:14:26;;;;;;;11.73;1.88;;;11.40;99.90;;;;;;5003253;28;20462;-50
2023/12/13 10:16:53;;;;;;;10.80;2.33;;;11.40;99.90;;;;;;5000361;28;20055;-50
2023/12/13 10:19:18;;;;;;;12.75;2.15;;;11.40;99.90;;;;;;5002589;28;20031;-50
2023/12/13 10:21:50;;;;;;;14.15;1.88;;;11.40;99.90;;;;;;5001860;28;20053;-50
2023/12/13 10:24:16;;;;;;;14.55;2.63;;;11.40;99.90;;;;;;5002834;28;20038;-50
2023/12/13 10:26:41;;;;;;;15.60;2.50;;;11.40;99.90;;;;;;4986200;28;20098;-50
2023/12/13 10:29:07;;;;;;;11.95;2.58;;;11.40;99.90;;;;;;5002717;28;21152;-49
2023/12/13 10:31:33;;;;;;;16.25;2.58;;;11.40;99.90;;;;;;5002887;28;20045;-50
2023/12/13 10:33:59;;;;;;;17.52;2.33;;;11.40;99.90;;;;;;5001116;28;20047;-50
2023/12/13 10:36:28;;;;;;;8.50;2.78;;;11.40;99.90;;;;;;5002208;28;20053;-50
2023/12/13 10:38:54;;;;;;;9.27;1.75;;;11.40;99.90;;;;;;5001907;28;20061;-50
2023/12/13 10:41:22;;;;;;;15.07;2.30;;;11.40;99.90;;;;;;5003039;28;20031;-50
2023/12/13 10:43:48;;;;;;;15.18;2.00;;;11.40;99.90;;;;;;5013451;28;20035;-50
2023/12/13 10:46:14;;;;;;;19.13;2.80;;;11.50;99.90;;;;;;4993288;28;20018;-50
2023/12/13 10:48:39;;;;;;;11.85;2.50;;;11.50;99.90;;;;;;4986333;28;20074;-48
2023/12/13 10:51:05;;;;;;;14.63;2.50;;;11.50;99.90;;;;;;5001847;28;20038;-50
2023/12/13 10:53:31;;;;;;;17.00;2.42;;;11.50;99.90;;;;;;4985822;28;20036;-50
2023/12/13 10:55:56;;;;;;;29.33;3.35;;;11.50;99.90;;;;;;5003985;28;20450;-50
2023/12/13 10:58:22;;;;;;;19.35;2.97;;;11.50;99.90;;;;;;5005110;28;20038;-50
2023/12/13 11:00:47;;;;;;;28.08;3.40;;;11.50;99.90;;;;;;5005646;28;20018;-49
2023/12/13 11:03:20;;;;;;;35.05;3.58;;;11.50;99.90;;;;;;5004671;28;20026;-50
2023/12/13 11:05:45;;;;;;;49.65;5.43;;;11.50;99.90;;;;;;4997957;28;20512;-51
2023/12/13 11:08:16;;;;;;;48.67;4.68;;;11.50;99.90;;;;;;5000479;28;20022;-51
2023/12/13 11:10:53;;;;;;;41.75;4.25;;;11.50;99.90;;;;;;5001659;28;20042;-51
2023/12/13 11:13:25;;;;;;;45.03;4.32;;;11.50;99.90;;;;;;4997480;28;20026;-50
2023/12/13 11:15:50;;;;;;;33.05;3.03;;;11.60;99.90;;;;;;5006273;28;20057;-51
2023/12/13 11:18:16;;;;;;;27.92;3.97;;;11.50;99.90;;;;;;5003838;28;20537;-51
2023/12/13 11:20:48;;;;;;;39.60;4.90;;;11.50;99.90;;;;;;5011355;28;20024;-50
2023/12/13 11:23:14;;;;;;;50.20;5.22;;;11.50;99.90;;;;;;4999193;28;20027;-51
2023/12/13 11:25:40;;;;;;;53.83;5.68;;;11.60;99.90;;;;;;4984188;28;20034;-48
2023/12/13 11:28:05;;;;;;;80.50;6.88;;;11.50;99.90;;;;;;4997513;28;20428;-51
2023/12/13 11:30:32;;;;;;;85.45;7.60;;;11.60;99.90;;;;;;5019968;28;20027;-50
2023/12/13 11:32:57;;;;;;;75.93;8.68;;;11.60;99.90;;;;;;4997338;28;20098;-51
2023/12/13 11:35:23;;;;;;;119.78;11.20;;;11.60;99.90;;;;;;5004303;28;20027;-50
2023/12/13 11:37:53;;;;;;;99.72;8.30;;;11.60;99.90;;;;;;5002890;28;20104;-50
2023/12/13 11:40:19;;;;;;;76.32;7.60;;;11.60;99.90;;;;;;5003951;28;20030;-51
2023/12/13 11:42:45;;;;;;;57.30;7.22;;;11.70;99.90;;;;;;5004341;28;20063;-51
2023/12/13 11:45:13;;;;;;;66.60;7.05;;;11.60;99.90;;;;;;4996890;28;20045;-51
2023/12/13 11:47:39;;;;;;;70.53;7.25;;;11.70;99.90;;;;;;4996296;28;20098;-50
2023/12/13 11:50:07;;;;;;;72.95;8.23;;;11.70;99.90;;;;;;5001916;28;20037;-50
2023/12/13 11:52:35;;;;;;;79.05;8.80;;;11.70;99.90;;;;;;5004664;28;20414;-50
2023/12/13 11:55:09;;;;;;;93.05;9.88;;;11.70;99.90;;;;;;5003658;28;20026;-51
2023/12/13 11:57:35;;;;;;;96.35;7.88;;;11.70;99.90;;;;;;5003823;28;20018;-50
2023/12/13 12:00:00;;;;;;;69.28;7.60;;;11.70;99.90;;;;;;4982421;28;20084;-50
2023/12/13 12:02:26;;;;;;;63.25;7.32;;;11.70;99.90;;;;;;5002810;28;20109;-51
2023/12/13 12:04:52;;;;;;;69.40;6.18;;;11.70;99.90;;;;;;5003787;28;20035;-51
2023/12/13 12:07:18;;;;;;;76.18;9.60;;;11.70;99.90;;;;;;4996996;28;20054;-52
2023/12/13 12:09:50;;;;;;;86.25;8.32;;;11.80;99.90;;;;;;5000357;28;20046;-51
2023/12/13 12:12:16;;;;;;;76.55;7.80;;;11.80;99.90;;;;;;4987949;28;20026;-50
2023/12/13 12:14:47;;;;;;;61.53;5.43;;;11.80;99.90;;;;;;5000740;28;20026;-50
2023/12/13 12:17:14;;;;;;;41.22;6.15;;;11.80;99.90;;;;;;4998566;28;20026;-51
2023/12/13 12:19:43;;;;;;;39.80;5.78;;;11.80;99.90;;;;;;4993521;28;20078;-51
2023/12/13 12:22:08;;;;;;;105.93;10.90;;;11.80;99.90;;;;;;5000884;28;20161;-51
2023/12/13 12:24:36;;;;;;;74.75;6.80;;;11.80;99.90;;;;;;5003791;28;20026;-50
2023/12/13 12:27:10;;;;;;;45.25;5.80;;;11.80;99.90;;;;;;5002330;28;20053;-51
2023/12/13 12:29:36;;;;;;;57.30;6.18;;;11.80;99.90;;;;;;4980597;28;20471;-51
2023/12/13 12:32:07;;;;;;;92.22;7.75;;;11.80;99.90;;;;;;5005952;28;20117;-51